Time,TemperatureF,DewpointF,PressureIn,WindDirection,WindDirectionDegrees,WindSpeedMPH,WindSpeedGustMPH,Humidity,HourlyPrecipIn,Conditions,Clouds,dailyrainin,SoftwareType,DateUTC
2013-04-18 00:01:00,73.4,67.2,30.08,East,91,0.0,6.0,81,0.00,,---,0.00,VWS V14.01,2013-04-18 04:01:00,
2013-04-18 00:02:00,73.4,67.2,30.08,East,91,0.0,6.0,81,0.00,,---,0.00,VWS V14.01,2013-04-18 04:02:00,
2013-04-18 00:03:00,73.3,67.1,30.08,East,91,0.0,0.0,81,0.00,,---,0.00,VWS V14.01,2013-04-18 04:03:00,
2013-04-18 00:08:00,73.1,67.3,30.08,East,91,0.0,1.0,82,0.00,,---,0.00,VWS V14.01,2013-04-18 04:08:00,
2013-04-18 00:14:00,72.8,67.0,30.08,East,84,0.0,1.0,82,0.00,,---,0.00,VWS V14.01,2013-04-18 04:14:00,
2013-04-18 00:19:00,72.8,67.3,30.08,East,82,0.0,1.0,83,0.00,,---,0.00,VWS V14.01,2013-04-18 04:19:00,
2013-04-18 00:24:00,72.8,67.3,30.07,East,82,0.0,0.0,83,0.00,,---,0.00,VWS V14.01,2013-04-18 04:24:00,
2013-04-18 00:29:00,72.7,67.2,30.07,East,89,0.0,2.0,83,0.00,,---,0.00,VWS V14.01,2013-04-18 04:29:00,
2013-04-18 00:34:00,72.7,67.2,30.07,ENE,77,2.0,2.0,83,0.00,,---,0.00,VWS V14.01,2013-04-18 04:34:00,
2013-04-18 00:39:00,72.6,67.2,30.07,East,84,0.0,2.0,83,0.00,,---,0.00,VWS V14.01,2013-04-18 04:39:00,
2013-04-18 00:44:00,72.4,66.9,30.07,East,84,0.0,2.0,83,0.00,,---,0.00,VWS V14.01,2013-04-18 04:44:00,
2013-04-18 00:49:00,72.4,66.9,30.07,ENE,75,0.0,2.0,83,0.00,,---,0.00,VWS V14.01,2013-04-18 04:49:00,
2013-04-18 00:54:00,72.3,66.8,30.07,ENE,75,0.0,2.0,83,0.00,,---,0.00,VWS V14.01,2013-04-18 04:54:00,
2013-04-18 00:59:00,72.2,66.8,30.06,ENE,75,0.0,2.0,83,0.00,,---,0.00,VWS V14.01,2013-04-18 04:59:00,
2013-04-18 01:04:00,72.1,67.0,30.05,East,96,0.0,2.0,84,0.00,,---,0.00,VWS V14.01,2013-04-18 05:04:00,
2013-04-18 01:10:00,72.0,66.9,30.05,ESE,112,0.0,3.0,84,0.00,,---,0.00,VWS V14.01,2013-04-18 05:10:00,
2013-04-18 01:15:00,72.0,66.9,30.05,East,80,0.0,3.0,84,0.00,,---,0.00,VWS V14.01,2013-04-18 05:15:00,
2013-04-18 01:20:00,72.1,67.0,30.04,ESE,102,0.0,3.0,84,0.00,,---,0.00,VWS V14.01,2013-04-18 05:20:00,
2013-04-18 01:25:00,72.0,66.9,30.04,ESE,102,0.0,3.0,84,0.00,,---,0.00,VWS V14.01,2013-04-18 05:25:00,
2013-04-18 01:30:00,72.0,66.9,30.05,ESE,102,0.0,3.0,84,0.00,,---,0.00,VWS V14.01,2013-04-18 05:30:00,
2013-04-18 01:35:00,71.9,66.8,30.04,East,80,1.0,1.0,84,0.00,,---,0.00,VWS V14.01,2013-04-18 05:35:00,
2013-04-18 01:40:00,72.0,66.9,30.05,East,80,0.0,1.0,84,0.00,,---,0.00,VWS V14.01,2013-04-18 05:40:00,
2013-04-18 01:45:00,71.9,66.8,30.04,East,81,0.0,1.0,84,0.00,,---,0.00,VWS V14.01,2013-04-18 05:45:00,
2013-04-18 01:50:00,71.8,67.1,30.04,ENE,64,0.0,1.0,85,0.00,,---,0.00,VWS V14.01,2013-04-18 05:50:00,
2013-04-18 01:55:00,71.7,66.9,30.03,ENE,63,0.0,1.0,85,0.00,,---,0.00,VWS V14.01,2013-04-18 05:55:00,
2013-04-18 02:00:00,71.7,66.9,30.03,ENE,67,1.0,2.0,85,0.00,,---,0.00,VWS V14.01,2013-04-18 06:00:00,
2013-04-18 02:05:00,71.6,66.9,30.03,ESE,108,0.0,2.0,85,0.00,,---,0.00,VWS V14.01,2013-04-18 06:05:00,
2013-04-18 02:11:00,71.5,66.8,30.03,ESE,107,0.0,2.0,85,0.00,,---,0.00,VWS V14.01,2013-04-18 06:11:00,
2013-04-18 02:16:00,71.4,67.0,30.02,ENE,77,0.0,2.0,86,0.00,,---,0.00,VWS V14.01,2013-04-18 06:16:00,
2013-04-18 02:21:00,71.3,66.9,30.02,ENE,75,0.0,2.0,86,0.00,,---,0.00,VWS V14.01,2013-04-18 06:21:00,
2013-04-18 02:26:00,71.2,66.8,30.02,ENE,77,0.0,2.0,86,0.00,,---,0.00,VWS V14.01,2013-04-18 06:26:00,
2013-04-18 02:31:00,71.1,67.0,30.02,SE,138,0.0,2.0,87,0.00,,---,0.00,VWS V14.01,2013-04-18 06:31:00,
2013-04-18 02:36:00,71.1,67.0,30.02,SE,136,0.0,1.0,87,0.00,,---,0.00,VWS V14.01,2013-04-18 06:36:00,
2013-04-18 02:41:00,71.1,67.0,30.02,East,101,0.0,1.0,87,0.00,,---,0.00,VWS V14.01,2013-04-18 06:41:00,
2013-04-18 02:46:00,71.0,66.9,30.02,East,84,0.0,1.0,87,0.00,,---,0.00,VWS V14.01,2013-04-18 06:46:00,
2013-04-18 02:51:00,71.1,67.0,30.02,WNW,298,0.0,1.0,87,0.00,,---,0.00,VWS V14.01,2013-04-18 06:51:00,
2013-04-18 02:56:00,71.1,67.0,30.01,WNW,298,0.0,1.0,87,0.00,,---,0.00,VWS V14.01,2013-04-18 06:56:00,
2013-04-18 03:01:00,71.1,67.0,30.02,WNW,298,0.0,1.0,87,0.00,,---,0.00,VWS V14.01,2013-04-18 07:01:00,
2013-04-18 03:07:00,70.9,66.8,30.01,WNW,298,0.0,0.0,87,0.00,,---,0.00,VWS V14.01,2013-04-18 07:07:00,
2013-04-18 03:12:00,70.7,66.7,30.01,WNW,298,0.0,0.0,87,0.00,,---,0.00,VWS V14.01,2013-04-18 07:12:00,
2013-04-18 03:17:00,70.7,67.0,30.01,WNW,298,0.0,0.0,88,0.00,,---,0.00,VWS V14.01,2013-04-18 07:17:00,
2013-04-18 03:22:00,70.6,66.9,30.02,WNW,297,0.0,0.0,88,0.00,,---,0.00,VWS V14.01,2013-04-18 07:22:00,
2013-04-18 03:27:00,70.6,66.9,30.01,WNW,297,0.0,0.0,88,0.00,,---,0.00,VWS V14.01,2013-04-18 07:27:00,
2013-04-18 03:32:00,70.8,67.4,30.01,NNE,20,1.0,1.0,89,0.00,,---,0.00,VWS V14.01,2013-04-18 07:32:00,
2013-04-18 03:37:00,71.1,67.7,30.01,NNE,22,0.0,1.0,89,0.00,,---,0.00,VWS V14.01,2013-04-18 07:37:00,
2013-04-18 03:42:00,71.4,67.7,30.01,NE,55,0.0,1.0,88,0.00,,---,0.00,VWS V14.01,2013-04-18 07:42:00,
2013-04-18 03:47:00,71.6,67.9,30.01,NE,55,1.0,1.0,88,0.00,,---,0.00,VWS V14.01,2013-04-18 07:47:00,
2013-04-18 03:52:00,71.7,67.6,30.00,East,95,0.0,2.0,87,0.00,,---,0.00,VWS V14.01,2013-04-18 07:52:00,
2013-04-18 03:57:00,71.7,67.6,30.01,East,101,0.0,2.0,87,0.00,,---,0.00,VWS V14.01,2013-04-18 07:57:00,
2013-04-18 04:02:00,71.7,67.6,30.00,East,91,0.0,0.0,87,0.00,,---,0.00,VWS V14.01,2013-04-18 08:02:00,
2013-04-18 04:07:00,71.8,67.4,30.01,East,86,0.0,1.0,86,0.00,,---,0.00,VWS V14.01,2013-04-18 08:07:00,
2013-04-18 04:12:00,71.8,67.4,30.01,East,86,0.0,1.0,86,0.00,,---,0.00,VWS V14.01,2013-04-18 08:12:00,
2013-04-18 04:18:00,71.6,67.2,30.01,East,86,0.0,1.0,86,0.00,,---,0.00,VWS V14.01,2013-04-18 08:18:00,
2013-04-18 04:23:00,71.5,67.4,30.01,East,82,0.0,1.0,87,0.00,,---,0.00,VWS V14.01,2013-04-18 08:23:00,
2013-04-18 04:28:00,71.4,67.3,30.01,East,82,0.0,1.0,87,0.00,,---,0.00,VWS V14.01,2013-04-18 08:28:00,
2013-04-18 04:33:00,71.2,67.1,30.01,East,82,0.0,0.0,87,0.00,,---,0.00,VWS V14.01,2013-04-18 08:33:00,
2013-04-18 04:38:00,71.0,67.3,30.01,East,82,0.0,0.0,88,0.00,,---,0.00,VWS V14.01,2013-04-18 08:38:00,
2013-04-18 04:43:00,70.6,66.9,30.01,East,82,0.0,0.0,88,0.00,,---,0.00,VWS V14.01,2013-04-18 08:43:00,
2013-04-18 04:48:00,70.3,66.9,30.01,East,82,0.0,0.0,89,0.00,,---,0.00,VWS V14.01,2013-04-18 08:48:00,
2013-04-18 04:53:00,70.0,66.9,30.01,ESE,108,0.0,0.0,90,0.00,,---,0.00,VWS V14.01,2013-04-18 08:53:00,
2013-04-18 04:58:00,69.6,66.5,30.01,ESE,109,0.0,1.0,90,0.00,,---,0.00,VWS V14.01,2013-04-18 08:58:00,
2013-04-18 05:03:00,69.3,66.6,30.02,ESE,108,0.0,0.0,91,0.00,,---,0.00,VWS V14.01,2013-04-18 09:03:00,
2013-04-18 05:08:00,69.0,66.3,30.02,ESE,109,0.0,1.0,91,0.00,,---,0.00,VWS V14.01,2013-04-18 09:08:00,
2013-04-18 05:14:00,69.0,66.3,30.02,North,359,0.0,1.0,91,0.00,,---,0.00,VWS V14.01,2013-04-18 09:14:00,
2013-04-18 05:19:00,68.8,66.1,30.01,North,358,0.0,1.0,91,0.00,,---,0.00,VWS V14.01,2013-04-18 09:19:00,
2013-04-18 05:24:00,68.6,65.9,30.01,WNW,300,0.0,1.0,91,0.00,,---,0.00,VWS V14.01,2013-04-18 09:24:00,
2013-04-18 05:29:00,68.3,65.9,30.01,WNW,300,0.0,1.0,92,0.00,,---,0.00,VWS V14.01,2013-04-18 09:29:00,
2013-04-18 05:34:00,68.0,65.6,30.01,WNW,300,0.0,0.0,92,0.00,,---,0.00,VWS V14.01,2013-04-18 09:34:00,
2013-04-18 05:39:00,67.7,65.6,30.02,WNW,300,0.0,0.0,93,0.00,,---,0.00,VWS V14.01,2013-04-18 09:39:00,
2013-04-18 05:44:00,67.5,65.4,30.01,WNW,301,0.0,0.0,93,0.00,,---,0.00,VWS V14.01,2013-04-18 09:44:00,
2013-04-18 05:49:00,67.3,65.2,30.02,WNW,301,0.0,0.0,93,0.00,,---,0.00,VWS V14.01,2013-04-18 09:49:00,
2013-04-18 05:54:00,67.1,65.0,30.02,WNW,300,0.0,0.0,93,0.00,,---,0.00,VWS V14.01,2013-04-18 09:54:00,
2013-04-18 05:59:00,66.9,65.1,30.02,WNW,300,0.0,0.0,94,0.00,,---,0.00,VWS V14.01,2013-04-18 09:59:00,
2013-04-18 06:05:00,66.8,65.0,30.02,WNW,300,0.0,0.0,94,0.00,,---,0.00,VWS V14.01,2013-04-18 10:05:00,
2013-04-18 06:10:00,66.7,64.9,30.02,WNW,300,0.0,0.0,94,0.00,,---,0.00,VWS V14.01,2013-04-18 10:10:00,
2013-04-18 06:15:00,66.7,64.9,30.02,WNW,302,0.0,0.0,94,0.00,,---,0.00,VWS V14.01,2013-04-18 10:15:00,
2013-04-18 06:20:00,66.8,65.3,30.02,WNW,300,0.0,1.0,95,0.00,,---,0.00,VWS V14.01,2013-04-18 10:20:00,
2013-04-18 06:25:00,66.8,65.0,30.02,WNW,301,0.0,1.0,94,0.00,,---,0.00,VWS V14.01,2013-04-18 10:25:00,
2013-04-18 06:30:00,66.6,64.8,30.02,WNW,301,0.0,1.0,94,0.00,,---,0.00,VWS V14.01,2013-04-18 10:30:00,
2013-04-18 06:35:00,66.4,64.6,30.03,WNW,300,0.0,0.0,94,0.00,,---,0.00,VWS V14.01,2013-04-18 10:35:00,
2013-04-18 06:40:00,66.2,64.4,30.03,WNW,300,0.0,0.0,94,0.00,,---,0.00,VWS V14.01,2013-04-18 10:40:00,
2013-04-18 06:45:00,65.9,64.1,30.03,WNW,300,0.0,0.0,94,0.00,,---,0.00,VWS V14.01,2013-04-18 10:45:00,
2013-04-18 06:50:00,65.7,63.9,30.03,WNW,301,0.0,0.0,94,0.00,,---,0.00,VWS V14.01,2013-04-18 10:50:00,
2013-04-18 06:55:00,65.5,63.7,30.03,WNW,301,0.0,0.0,94,0.00,,---,0.00,VWS V14.01,2013-04-18 10:55:00,
2013-04-18 07:00:00,65.4,63.6,30.03,WNW,301,0.0,0.0,94,0.00,,---,0.00,VWS V14.01,2013-04-18 11:00:00,
2013-04-18 07:05:00,65.5,64.3,30.04,WNW,301,0.0,0.0,96,0.00,,---,0.00,VWS V14.01,2013-04-18 11:05:00,
2013-04-18 07:11:00,65.6,64.1,30.04,WNW,300,0.0,0.0,95,0.00,,---,0.00,VWS V14.01,2013-04-18 11:11:00,
2013-04-18 07:16:00,65.6,64.1,30.04,WNW,301,0.0,0.0,95,0.00,,---,0.00,VWS V14.01,2013-04-18 11:16:00,
2013-04-18 07:21:00,65.6,64.4,30.04,WNW,301,0.0,0.0,96,0.00,,---,0.00,VWS V14.01,2013-04-18 11:21:00,
2013-04-18 07:26:00,65.8,64.6,30.04,WNW,301,0.0,0.0,96,0.00,,---,0.00,VWS V14.01,2013-04-18 11:26:00,
2013-04-18 07:31:00,65.9,64.7,30.05,WNW,301,0.0,0.0,96,0.00,,---,0.00,VWS V14.01,2013-04-18 11:31:00,
2013-04-18 07:36:00,66.3,65.1,30.05,WNW,301,0.0,0.0,96,0.00,,---,0.00,VWS V14.01,2013-04-18 11:36:00,
2013-04-18 07:41:00,66.7,65.5,30.06,WNW,302,0.0,0.0,96,0.00,,---,0.00,VWS V14.01,2013-04-18 11:41:00,
2013-04-18 07:46:00,67.1,65.9,30.05,WNW,302,0.0,0.0,96,0.00,,---,0.00,VWS V14.01,2013-04-18 11:46:00,
2013-04-18 07:52:00,67.7,66.5,30.05,WNW,302,0.0,0.0,96,0.00,,---,0.00,VWS V14.01,2013-04-18 11:52:00,
2013-04-18 07:57:00,68.6,67.4,30.05,WNW,302,0.0,0.0,96,0.00,,---,0.00,VWS V14.01,2013-04-18 11:57:00,
2013-04-18 08:02:00,70.1,69.2,30.05,WNW,302,0.0,0.0,97,0.00,,---,0.00,VWS V14.01,2013-04-18 12:02:00,
2013-04-18 08:07:00,71.3,70.1,30.06,WNW,302,0.0,0.0,96,0.00,,---,0.00,VWS V14.01,2013-04-18 12:07:00,
2013-04-18 08:12:00,72.0,69.6,30.05,WNW,302,0.0,1.0,92,0.00,,---,0.00,VWS V14.01,2013-04-18 12:12:00,
2013-04-18 08:17:00,72.2,69.1,30.05,NNW,345,0.0,1.0,90,0.00,,---,0.00,VWS V14.01,2013-04-18 12:17:00,
2013-04-18 08:22:00,72.7,69.3,30.05,ENE,78,0.0,1.0,89,0.00,,---,0.00,VWS V14.01,2013-04-18 12:22:00,
2013-04-18 08:27:00,73.4,69.6,30.05,East,79,0.0,1.0,88,0.00,,---,0.00,VWS V14.01,2013-04-18 12:27:00,
2013-04-18 08:32:00,73.9,69.4,30.05,SE,137,0.0,0.0,86,0.00,,---,0.00,VWS V14.01,2013-04-18 12:32:00,
2013-04-18 08:37:00,74.4,69.6,30.05,SE,137,0.0,1.0,85,0.00,,---,0.00,VWS V14.01,2013-04-18 12:37:00,
2013-04-18 08:42:00,75.1,69.9,30.05,SE,137,0.0,1.0,84,0.00,,---,0.00,VWS V14.01,2013-04-18 12:42:00,
2013-04-18 08:47:00,75.6,69.7,30.05,SSW,195,1.0,2.0,82,0.00,,---,0.00,VWS V14.01,2013-04-18 12:47:00,
2013-04-18 08:52:00,75.8,69.6,30.05,SSE,159,0.0,2.0,81,0.00,,---,0.00,VWS V14.01,2013-04-18 12:52:00,
2013-04-18 08:57:00,76.1,69.5,30.05,SE,133,0.0,2.0,80,0.00,,---,0.00,VWS V14.01,2013-04-18 12:57:00,
2013-04-18 09:02:00,76.8,69.8,30.05,SE,139,0.0,1.0,79,0.00,,---,0.00,VWS V14.01,2013-04-18 13:02:00,
2013-04-18 09:08:00,77.6,69.8,30.05,SE,134,1.0,1.0,77,0.00,,---,0.00,VWS V14.01,2013-04-18 13:08:00,
2013-04-18 09:13:00,77.9,68.9,30.05,SSW,202,1.0,2.0,74,0.00,,---,0.00,VWS V14.01,2013-04-18 13:13:00,
2013-04-18 09:18:00,78.1,68.8,30.06,NE,54,3.0,5.0,73,0.00,,---,0.00,VWS V14.01,2013-04-18 13:18:00,
2013-04-18 09:23:00,78.6,69.6,30.06,ESE,116,1.0,5.0,74,0.00,,---,0.00,VWS V14.01,2013-04-18 13:23:00,
2013-04-18 09:28:00,79.0,69.2,30.06,ESE,123,1.0,5.0,72,0.00,,---,0.00,VWS V14.01,2013-04-18 13:28:00,
2013-04-18 09:33:00,79.1,68.9,30.06,SSE,155,1.0,1.0,71,0.00,,---,0.00,VWS V14.01,2013-04-18 13:33:00,
2013-04-18 09:38:00,79.4,69.2,30.06,East,88,1.0,5.0,71,0.00,,---,0.00,VWS V14.01,2013-04-18 13:38:00,
2013-04-18 09:43:00,79.8,69.6,30.06,ENE,70,1.0,5.0,71,0.00,,---,0.00,VWS V14.01,2013-04-18 13:43:00,
2013-04-18 09:48:00,79.7,69.1,30.06,SE,142,1.0,5.0,70,0.00,,---,0.00,VWS V14.01,2013-04-18 13:48:00,
2013-04-18 09:53:00,80.1,69.4,30.06,SSW,211,0.0,5.0,70,0.00,,---,0.00,VWS V14.01,2013-04-18 13:53:00,
2013-04-18 09:58:00,80.8,70.1,30.06,SE,131,2.0,5.0,70,0.00,,---,0.00,VWS V14.01,2013-04-18 13:58:00,
2013-04-18 10:03:00,80.7,69.6,30.07,NNE,32,3.0,4.0,69,0.00,,---,0.00,VWS V14.01,2013-04-18 14:03:00,
2013-04-18 10:08:00,81.1,70.0,30.06,ENE,71,2.0,4.0,69,0.00,,---,0.00,VWS V14.01,2013-04-18 14:08:00,
2013-04-18 10:14:00,81.4,69.0,30.07,SE,128,0.0,5.0,66,0.00,,---,0.00,VWS V14.01,2013-04-18 14:14:00,
2013-04-18 10:19:00,81.4,69.0,30.06,SSE,149,1.0,5.0,66,0.00,,---,0.00,VWS V14.01,2013-04-18 14:19:00,
2013-04-18 10:24:00,80.9,68.5,30.06,ESE,120,1.0,5.0,66,0.00,,---,0.00,VWS V14.01,2013-04-18 14:24:00,
2013-04-18 10:29:00,80.9,69.4,30.06,South,181,1.0,5.0,68,0.00,,---,0.00,VWS V14.01,2013-04-18 14:29:00,
2013-04-18 10:34:00,81.4,69.4,30.06,WSW,257,2.0,4.0,67,0.00,,---,0.00,VWS V14.01,2013-04-18 14:34:00,
2013-04-18 10:39:00,81.7,69.7,30.07,SSW,193,3.0,6.0,67,0.00,,---,0.00,VWS V14.01,2013-04-18 14:39:00,
2013-04-18 10:44:00,81.5,69.5,30.07,ESE,117,0.0,8.0,67,0.00,,---,0.00,VWS V14.01,2013-04-18 14:44:00,
2013-04-18 10:49:00,81.8,69.3,30.07,East,89,2.0,8.0,66,0.00,,---,0.00,VWS V14.01,2013-04-18 14:49:00,
2013-04-18 10:54:00,82.5,70.0,30.07,SW,217,1.0,8.0,66,0.00,,---,0.00,VWS V14.01,2013-04-18 14:54:00,
2013-04-18 10:59:00,82.8,70.3,30.07,SE,135,1.0,8.0,66,0.00,,---,0.00,VWS V14.01,2013-04-18 14:59:00,
2013-04-18 11:04:00,82.4,69.9,30.07,ESE,123,1.0,2.0,66,0.00,,---,0.00,VWS V14.01,2013-04-18 15:04:00,
2013-04-18 11:09:00,82.0,70.0,30.06,ESE,108,1.0,9.0,67,0.00,,---,0.00,VWS V14.01,2013-04-18 15:09:00,
2013-04-18 11:14:00,82.0,70.0,30.06,SE,124,2.0,9.0,67,0.00,,---,0.00,VWS V14.01,2013-04-18 15:14:00,
2013-04-18 11:19:00,82.5,70.4,30.06,SSW,195,1.0,9.0,67,0.00,,---,0.00,VWS V14.01,2013-04-18 15:19:00,
2013-04-18 11:24:00,82.1,70.1,30.06,ENE,63,4.0,9.0,67,0.00,,---,0.00,VWS V14.01,2013-04-18 15:24:00,
2013-04-18 11:29:00,81.2,70.1,30.06,ENE,76,2.0,11.0,69,0.00,,---,0.00,VWS V14.01,2013-04-18 15:29:00,
2013-04-18 11:34:00,80.7,70.0,30.05,East,97,3.0,6.0,70,0.00,,---,0.00,VWS V14.01,2013-04-18 15:34:00,
2013-04-18 11:40:00,81.1,70.4,30.05,East,88,2.0,6.0,70,0.00,,---,0.00,VWS V14.01,2013-04-18 15:40:00,
2013-04-18 11:45:00,81.4,70.3,30.05,NE,47,1.0,7.0,69,0.00,,---,0.00,VWS V14.01,2013-04-18 15:45:00,
2013-04-18 11:50:00,81.0,69.9,30.05,ESE,114,0.0,7.0,69,0.00,,---,0.00,VWS V14.01,2013-04-18 15:50:00,
2013-04-18 11:55:00,80.7,70.0,30.05,South,169,2.0,7.0,70,0.00,,---,0.00,VWS V14.01,2013-04-18 15:55:00,
2013-04-18 12:00:00,80.7,70.4,30.05,SSE,152,1.0,7.0,71,0.00,,---,0.00,VWS V14.01,2013-04-18 16:00:00,
2013-04-18 12:05:00,81.6,70.4,30.05,SE,129,4.0,5.0,69,0.00,,---,0.00,VWS V14.01,2013-04-18 16:05:00,
2013-04-18 12:10:00,81.9,70.3,30.05,SW,222,4.0,5.0,68,0.00,,---,0.00,VWS V14.01,2013-04-18 16:10:00,
2013-04-18 12:15:00,81.5,70.4,30.05,ESE,122,1.0,5.0,69,0.00,,---,0.00,VWS V14.01,2013-04-18 16:15:00,
2013-04-18 12:20:00,81.2,69.6,30.05,SE,124,1.0,8.0,68,0.00,,---,0.00,VWS V14.01,2013-04-18 16:20:00,
2013-04-18 12:25:00,80.7,70.0,30.05,East,94,1.0,8.0,70,0.00,,---,0.00,VWS V14.01,2013-04-18 16:25:00,
2013-04-18 12:30:00,81.0,70.3,30.05,NE,39,2.0,8.0,70,0.00,,---,0.00,VWS V14.01,2013-04-18 16:30:00,
2013-04-18 12:35:00,81.5,70.8,30.05,SSE,166,1.0,4.0,70,0.00,,---,0.00,VWS V14.01,2013-04-18 16:35:00,
2013-04-18 12:40:00,81.5,70.8,30.05,South,191,1.0,6.0,70,0.00,,---,0.00,VWS V14.01,2013-04-18 16:40:00,
2013-04-18 12:45:00,81.7,71.0,30.05,ESE,119,1.0,6.0,70,0.00,,---,0.00,VWS V14.01,2013-04-18 16:45:00,
2013-04-18 12:50:00,81.7,71.0,30.05,SE,133,2.0,6.0,70,0.00,,---,0.00,VWS V14.01,2013-04-18 16:50:00,
2013-04-18 12:56:00,81.8,71.1,30.05,SSE,155,2.0,6.0,70,0.00,,---,0.00,VWS V14.01,2013-04-18 16:56:00,
2013-04-18 13:01:00,82.8,71.2,30.04,SSW,196,2.0,6.0,68,0.00,,---,0.00,VWS V14.01,2013-04-18 17:01:00,
2013-04-18 13:06:00,83.6,71.1,30.04,NNW,327,1.0,7.0,66,0.00,,---,0.00,VWS V14.01,2013-04-18 17:06:00,
2013-04-18 13:11:00,83.7,71.6,30.04,SE,141,2.0,7.0,67,0.00,,---,0.00,VWS V14.01,2013-04-18 17:11:00,
2013-04-18 13:16:00,84.0,71.4,30.04,SE,144,4.0,9.0,66,0.00,,---,0.00,VWS V14.01,2013-04-18 17:16:00,
2013-04-18 13:21:00,83.6,71.5,30.04,South,190,2.0,9.0,67,0.00,,---,0.00,VWS V14.01,2013-04-18 17:21:00,
2013-04-18 13:26:00,83.6,70.6,30.03,ESE,113,1.0,9.0,65,0.00,,---,0.00,VWS V14.01,2013-04-18 17:26:00,
2013-04-18 13:31:00,83.4,70.9,30.03,ESE,109,2.0,9.0,66,0.00,,---,0.00,VWS V14.01,2013-04-18 17:31:00,
2013-04-18 13:37:00,82.9,70.8,30.03,ESE,116,2.0,14.0,67,0.00,,---,0.00,VWS V14.01,2013-04-18 17:37:00,
2013-04-18 13:42:00,82.7,71.5,30.03,East,101,1.0,14.0,69,0.00,,---,0.00,VWS V14.01,2013-04-18 17:42:00,
2013-04-18 13:47:00,82.5,70.9,30.03,East,101,1.0,14.0,68,0.00,,---,0.00,VWS V14.01,2013-04-18 17:47:00,
2013-04-18 13:52:00,82.8,71.6,30.03,SSE,159,2.0,14.0,69,0.00,,---,0.00,VWS V14.01,2013-04-18 17:52:00,
2013-04-18 13:57:00,83.2,71.1,30.02,SE,141,1.0,14.0,67,0.00,,---,0.00,VWS V14.01,2013-04-18 17:57:00,
2013-04-18 14:02:00,83.3,71.2,30.02,NE,44,2.0,14.0,67,0.00,,---,0.00,VWS V14.01,2013-04-18 18:02:00,
2013-04-18 14:07:00,83.1,71.0,30.02,East,84,6.0,6.0,67,0.00,,---,0.00,VWS V14.01,2013-04-18 18:07:00,
2013-04-18 14:12:00,82.5,70.9,30.02,East,79,2.0,9.0,68,0.00,,---,0.00,VWS V14.01,2013-04-18 18:12:00,
2013-04-18 14:17:00,82.2,71.0,30.02,NNE,23,6.0,12.0,69,0.00,,---,0.00,VWS V14.01,2013-04-18 18:17:00,
2013-04-18 14:22:00,82.0,71.3,30.02,East,94,1.0,12.0,70,0.00,,---,0.00,VWS V14.01,2013-04-18 18:22:00,
2013-04-18 14:27:00,81.8,71.1,30.02,ENE,71,4.0,12.0,70,0.00,,---,0.00,VWS V14.01,2013-04-18 18:27:00,
2013-04-18 14:32:00,82.1,71.8,30.02,ESE,117,1.0,2.0,71,0.00,,---,0.00,VWS V14.01,2013-04-18 18:32:00,
2013-04-18 14:38:00,82.3,71.5,30.01,ESE,108,2.0,7.0,70,0.00,,---,0.00,VWS V14.01,2013-04-18 18:38:00,
2013-04-18 14:42:00,82.1,71.8,30.01,SE,134,1.0,7.0,71,0.00,,---,0.00,VWS V14.01,2013-04-18 18:42:00,
2013-04-18 14:48:00,81.7,71.4,30.01,ESE,113,0.0,9.0,71,0.00,,---,0.00,VWS V14.01,2013-04-18 18:48:00,
2013-04-18 14:53:00,81.9,72.0,30.01,East,98,1.0,11.0,72,0.00,,---,0.00,VWS V14.01,2013-04-18 18:53:00,
2013-04-18 14:58:00,82.6,72.7,30.01,NNE,30,1.0,11.0,72,0.00,,---,0.00,VWS V14.01,2013-04-18 18:58:00,
2013-04-18 15:03:00,83.4,71.7,30.01,ESE,105,3.0,7.0,68,0.00,,---,0.00,VWS V14.01,2013-04-18 19:03:00,
2013-04-18 15:08:00,83.2,72.4,30.01,SSE,148,3.0,8.0,70,0.00,,---,0.00,VWS V14.01,2013-04-18 19:08:00,
2013-04-18 15:13:00,83.3,72.5,30.00,NE,39,6.0,8.0,70,0.00,,---,0.00,VWS V14.01,2013-04-18 19:13:00,
2013-04-18 15:18:00,82.8,72.0,30.01,NE,55,7.0,12.0,70,0.00,,---,0.00,VWS V14.01,2013-04-18 19:18:00,
2013-04-18 15:23:00,82.7,72.3,30.01,East,96,1.0,12.0,71,0.00,,---,0.00,VWS V14.01,2013-04-18 19:23:00,
2013-04-18 15:28:00,82.7,71.9,30.01,ESE,113,3.0,12.0,70,0.00,,---,0.00,VWS V14.01,2013-04-18 19:28:00,
2013-04-18 15:33:00,83.6,72.4,30.00,ESE,110,1.0,5.0,69,0.00,,---,0.00,VWS V14.01,2013-04-18 19:33:00,
2013-04-18 15:38:00,84.0,71.9,30.00,NE,56,4.0,7.0,67,0.00,,---,0.00,VWS V14.01,2013-04-18 19:38:00,
2013-04-18 15:43:00,84.0,72.3,30.00,East,101,1.0,7.0,68,0.00,,---,0.00,VWS V14.01,2013-04-18 19:43:00,
2013-04-18 15:48:00,84.4,72.2,30.00,ENE,65,2.0,7.0,67,0.00,,---,0.00,VWS V14.01,2013-04-18 19:48:00,
2013-04-18 15:54:00,84.0,71.0,30.00,North,9,1.0,12.0,65,0.00,,---,0.00,VWS V14.01,2013-04-18 19:54:00,
2013-04-18 15:59:00,84.0,72.3,30.00,SSW,198,2.0,12.0,68,0.00,,---,0.00,VWS V14.01,2013-04-18 19:59:00,
2013-04-18 16:04:00,84.6,73.3,30.00,ENE,65,5.0,6.0,69,0.00,,---,0.00,VWS V14.01,2013-04-18 20:04:00,
2013-04-18 16:09:00,84.4,72.2,30.00,ENE,72,7.0,9.0,67,0.00,,---,0.00,VWS V14.01,2013-04-18 20:09:00,
2013-04-18 16:14:00,83.5,71.8,29.99,ENE,70,6.0,9.0,68,0.00,,---,0.00,VWS V14.01,2013-04-18 20:14:00,
2013-04-18 16:19:00,83.3,72.1,29.99,SE,133,0.0,9.0,69,0.00,,---,0.00,VWS V14.01,2013-04-18 20:19:00,
2013-04-18 16:24:00,84.2,71.2,29.99,SE,138,1.0,9.0,65,0.00,,---,0.00,VWS V14.01,2013-04-18 20:24:00,
2013-04-18 16:29:00,83.9,71.3,29.99,SE,128,0.0,9.0,66,0.00,,---,0.00,VWS V14.01,2013-04-18 20:29:00,
2013-04-18 16:34:00,83.4,71.3,29.99,ESE,110,1.0,5.0,67,0.00,,---,0.00,VWS V14.01,2013-04-18 20:34:00,
2013-04-18 16:39:00,83.5,70.9,29.99,SSE,155,2.0,5.0,66,0.00,,---,0.00,VWS V14.01,2013-04-18 20:39:00,
2013-04-18 16:44:00,83.9,71.8,29.99,ESE,110,7.0,7.0,67,0.00,,---,0.00,VWS V14.01,2013-04-18 20:44:00,
2013-04-18 16:49:00,84.0,72.3,29.99,North,5,2.0,7.0,68,0.00,,---,0.00,VWS V14.01,2013-04-18 20:49:00,
2013-04-18 16:54:00,83.9,71.8,29.99,SSW,197,2.0,7.0,67,0.00,,---,0.00,VWS V14.01,2013-04-18 20:54:00,
2013-04-18 17:00:00,83.9,70.9,29.99,NE,52,4.0,8.0,65,0.00,,---,0.00,VWS V14.01,2013-04-18 21:00:00,
2013-04-18 17:05:00,83.9,70.9,29.99,East,82,2.0,4.0,65,0.00,,---,0.00,VWS V14.01,2013-04-18 21:05:00,
2013-04-18 17:10:00,83.5,70.5,29.99,ESE,115,4.0,10.0,65,0.00,,---,0.00,VWS V14.01,2013-04-18 21:10:00,
2013-04-18 17:15:00,83.2,69.8,29.99,ESE,105,2.0,11.0,64,0.00,,---,0.00,VWS V14.01,2013-04-18 21:15:00,
2013-04-18 17:20:00,83.3,70.3,29.99,SSE,153,2.0,11.0,65,0.00,,---,0.00,VWS V14.01,2013-04-18 21:20:00,
2013-04-18 17:25:00,82.9,69.9,29.99,South,180,3.0,11.0,65,0.00,,---,0.00,VWS V14.01,2013-04-18 21:25:00,
2013-04-18 17:30:00,82.7,71.1,29.99,ENE,72,0.0,11.0,68,0.00,,---,0.00,VWS V14.01,2013-04-18 21:30:00,
2013-04-18 17:35:00,83.0,71.4,29.99,NE,50,1.0,4.0,68,0.00,,---,0.00,VWS V14.01,2013-04-18 21:35:00,
2013-04-18 17:40:00,83.2,70.2,29.99,East,89,2.0,4.0,65,0.00,,---,0.00,VWS V14.01,2013-04-18 21:40:00,
2013-04-18 17:45:00,83.4,70.9,29.99,SE,124,2.0,5.0,66,0.00,,---,0.00,VWS V14.01,2013-04-18 21:45:00,
2013-04-18 17:50:00,83.6,71.5,29.99,SSE,159,1.0,5.0,67,0.00,,---,0.00,VWS V14.01,2013-04-18 21:50:00,
2013-04-18 17:55:00,83.3,69.9,29.99,SE,127,2.0,6.0,64,0.00,,---,0.00,VWS V14.01,2013-04-18 21:55:00,
2013-04-18 18:00:00,82.5,70.0,29.99,SSE,162,1.0,6.0,66,0.00,,---,0.00,VWS V14.01,2013-04-18 22:00:00,
2013-04-18 18:05:00,81.9,69.4,29.99,SE,135,1.0,5.0,66,0.00,,---,0.00,VWS V14.01,2013-04-18 22:05:00,
2013-04-18 18:11:00,81.5,69.9,29.98,ESE,108,1.0,5.0,68,0.00,,---,0.00,VWS V14.01,2013-04-18 22:11:00,
2013-04-18 18:16:00,81.4,70.3,29.99,SE,126,2.0,5.0,69,0.00,,---,0.00,VWS V14.01,2013-04-18 22:16:00,
2013-04-18 18:21:00,81.1,70.4,29.99,NE,47,1.0,5.0,70,0.00,,---,0.00,VWS V14.01,2013-04-18 22:21:00,
2013-04-18 18:26:00,80.7,70.8,29.99,ESE,109,1.0,5.0,72,0.00,,---,0.00,VWS V14.01,2013-04-18 22:26:00,
2013-04-18 18:31:00,80.4,71.4,29.99,East,87,0.0,5.0,74,0.00,,---,0.00,VWS V14.01,2013-04-18 22:31:00,
2013-04-18 18:36:00,80.4,71.4,29.99,East,95,2.0,4.0,74,0.00,,---,0.00,VWS V14.01,2013-04-18 22:36:00,
2013-04-18 18:41:00,80.3,71.7,29.99,SSE,159,2.0,6.0,75,0.00,,---,0.00,VWS V14.01,2013-04-18 22:41:00,
2013-04-18 18:46:00,80.1,71.9,29.99,WSW,240,2.0,6.0,76,0.00,,---,0.00,VWS V14.01,2013-04-18 22:46:00,
2013-04-18 18:51:00,79.9,72.1,29.99,ESE,116,2.0,6.0,77,0.00,,---,0.00,VWS V14.01,2013-04-18 22:51:00,
2013-04-18 18:56:00,79.8,71.9,29.99,SSE,159,2.0,7.0,77,0.00,,---,0.00,VWS V14.01,2013-04-18 22:56:00,
2013-04-18 19:01:00,79.7,71.9,29.99,East,88,2.0,7.0,77,0.00,,---,0.00,VWS V14.01,2013-04-18 23:01:00,
2013-04-18 19:06:00,79.5,72.0,29.99,SE,138,1.0,5.0,78,0.00,,---,0.00,VWS V14.01,2013-04-18 23:06:00,
2013-04-18 19:11:00,79.4,71.9,30.00,SSW,194,1.0,5.0,78,0.00,,---,0.00,VWS V14.01,2013-04-18 23:11:00,
2013-04-18 19:17:00,79.2,72.1,30.00,ENE,63,1.0,5.0,79,0.00,,---,0.00,VWS V14.01,2013-04-18 23:17:00,
2013-04-18 19:22:00,79.1,72.0,30.00,SE,133,2.0,5.0,79,0.00,,---,0.00,VWS V14.01,2013-04-18 23:22:00,
2013-04-18 19:27:00,79.0,71.9,30.00,ESE,103,1.0,6.0,79,0.00,,---,0.00,VWS V14.01,2013-04-18 23:27:00,
2013-04-18 19:32:00,78.8,71.7,30.00,ESE,122,1.0,6.0,79,0.00,,---,0.00,VWS V14.01,2013-04-18 23:32:00,
2013-04-18 19:37:00,78.7,71.6,30.00,SE,131,0.0,2.0,79,0.00,,---,0.00,VWS V14.01,2013-04-18 23:37:00,
2013-04-18 19:42:00,78.6,71.2,30.00,SW,224,1.0,7.0,78,0.00,,---,0.00,VWS V14.01,2013-04-18 23:42:00,
2013-04-18 19:47:00,78.6,71.6,30.00,SE,125,0.0,7.0,79,0.00,,---,0.00,VWS V14.01,2013-04-18 23:47:00,
2013-04-18 19:52:00,78.6,71.9,30.00,SSE,152,1.0,7.0,80,0.00,,---,0.00,VWS V14.01,2013-04-18 23:52:00,
2013-04-18 19:57:00,78.5,72.2,30.00,North,8,0.0,7.0,81,0.00,,---,0.00,VWS V14.01,2013-04-18 23:57:00,
2013-04-18 20:02:00,78.5,72.2,30.00,SE,142,1.0,4.0,81,0.00,,---,0.00,VWS V14.01,2013-04-19 00:02:00,
2013-04-18 20:07:00,78.4,72.1,30.00,SE,131,3.0,4.0,81,0.00,,---,0.00,VWS V14.01,2013-04-19 00:07:00,
2013-04-18 20:12:00,78.3,72.0,30.00,ESE,112,0.0,4.0,81,0.00,,---,0.00,VWS V14.01,2013-04-19 00:12:00,
2013-04-18 20:17:00,78.0,71.0,30.00,East,86,2.0,6.0,79,0.00,,---,0.00,VWS V14.01,2013-04-19 00:17:00,
2013-04-18 20:22:00,77.8,69.2,30.00,East,82,2.0,6.0,75,0.00,,---,0.00,VWS V14.01,2013-04-19 00:22:00,
2013-04-18 20:28:00,77.9,68.9,29.99,North,11,1.0,6.0,74,0.00,,---,0.00,VWS V14.01,2013-04-19 00:28:00,
2013-04-18 20:33:00,78.0,69.1,29.99,ESE,120,0.0,1.0,74,0.00,,---,0.00,VWS V14.01,2013-04-19 00:33:00,
2013-04-18 20:38:00,78.0,68.7,30.00,NNW,335,2.0,4.0,73,0.00,,---,0.00,VWS V14.01,2013-04-19 00:38:00,
2013-04-18 20:43:00,78.0,68.2,29.99,East,96,0.0,4.0,72,0.00,,---,0.00,VWS V14.01,2013-04-19 00:43:00,
2013-04-18 20:48:00,78.1,68.8,30.00,SSW,204,1.0,4.0,73,0.00,,---,0.00,VWS V14.01,2013-04-19 00:48:00,
2013-04-18 20:53:00,78.1,69.5,30.00,SE,144,1.0,4.0,75,0.00,,---,0.00,VWS V14.01,2013-04-19 00:53:00,
2013-04-18 20:58:00,78.2,70.4,30.00,East,101,1.0,4.0,77,0.00,,---,0.00,VWS V14.01,2013-04-19 00:58:00,
2013-04-18 21:03:00,78.2,71.2,30.00,SE,141,0.0,2.0,79,0.00,,---,0.00,VWS V14.01,2013-04-19 01:03:00,
2013-04-18 21:08:00,78.2,71.5,30.01,East,84,1.0,2.0,80,0.00,,---,0.00,VWS V14.01,2013-04-19 01:08:00,
2013-04-18 21:13:00,78.1,71.8,30.01,SE,143,1.0,5.0,81,0.00,,---,0.00,VWS V14.01,2013-04-19 01:13:00,
2013-04-18 21:19:00,78.1,71.8,30.01,ESE,108,0.0,5.0,81,0.00,,---,0.00,VWS V14.01,2013-04-19 01:19:00,
2013-04-18 21:24:00,78.0,72.1,30.01,ESE,112,0.0,5.0,82,0.00,,---,0.00,VWS V14.01,2013-04-19 01:24:00,
2013-04-18 21:29:00,77.9,72.0,30.01,SSE,153,0.0,5.0,82,0.00,,---,0.00,VWS V14.01,2013-04-19 01:29:00,
2013-04-18 21:34:00,77.7,72.1,30.01,ESE,103,1.0,2.0,83,0.00,,---,0.00,VWS V14.01,2013-04-19 01:34:00,
2013-04-18 21:39:00,77.6,72.0,30.01,SSE,156,0.0,2.0,83,0.00,,---,0.00,VWS V14.01,2013-04-19 01:39:00,
2013-04-18 21:44:00,77.5,72.3,30.02,NNE,22,0.0,2.0,84,0.00,,---,0.00,VWS V14.01,2013-04-19 01:44:00,
2013-04-18 21:49:00,77.4,72.2,30.02,ESE,116,1.0,2.0,84,0.00,,---,0.00,VWS V14.01,2013-04-19 01:49:00,
2013-04-18 21:54:00,77.4,72.2,30.02,SE,126,0.0,3.0,84,0.00,,---,0.00,VWS V14.01,2013-04-19 01:54:00,
2013-04-18 21:59:00,77.2,72.3,30.02,ESE,117,1.0,3.0,85,0.00,,---,0.00,VWS V14.01,2013-04-19 01:59:00,
2013-04-18 22:04:00,77.1,72.2,30.02,SE,128,0.0,1.0,85,0.00,,---,0.00,VWS V14.01,2013-04-19 02:04:00,
2013-04-18 22:10:00,77.0,72.2,30.02,ESE,116,0.0,1.0,85,0.00,,---,0.00,VWS V14.01,2013-04-19 02:10:00,
2013-04-18 22:15:00,76.9,72.4,30.02,East,98,1.0,2.0,86,0.00,,---,0.00,VWS V14.01,2013-04-19 02:15:00,
2013-04-18 22:20:00,76.8,72.3,30.02,WSW,257,0.0,2.0,86,0.00,,---,0.00,VWS V14.01,2013-04-19 02:20:00,
2013-04-18 22:25:00,76.7,72.2,30.03,ESE,120,2.0,3.0,86,0.00,,---,0.00,VWS V14.01,2013-04-19 02:25:00,
2013-04-18 22:30:00,76.7,72.2,30.03,ESE,116,0.0,3.0,86,0.00,,---,0.00,VWS V14.01,2013-04-19 02:30:00,
2013-04-18 22:35:00,76.6,72.1,30.03,SW,228,0.0,1.0,86,0.00,,---,0.00,VWS V14.01,2013-04-19 02:35:00,
2013-04-18 22:40:00,76.5,72.3,30.03,SSW,203,0.0,1.0,87,0.00,,---,0.00,VWS V14.01,2013-04-19 02:40:00,
2013-04-18 22:45:00,76.3,72.2,30.03,SE,139,0.0,2.0,87,0.00,,---,0.00,VWS V14.01,2013-04-19 02:45:00,
2013-04-18 22:50:00,76.2,72.1,30.03,SW,224,0.0,2.0,87,0.00,,---,0.00,VWS V14.01,2013-04-19 02:50:00,
2013-04-18 22:55:00,76.1,72.3,30.03,SW,226,0.0,2.0,88,0.00,,---,0.00,VWS V14.01,2013-04-19 02:55:00,
2013-04-18 23:01:00,75.9,72.1,30.03,SW,226,0.0,2.0,88,0.00,,---,0.00,VWS V14.01,2013-04-19 03:01:00,
2013-04-18 23:06:00,75.9,72.1,30.03,ESE,122,0.0,1.0,88,0.00,,---,0.00,VWS V14.01,2013-04-19 03:06:00,
2013-04-18 23:11:00,75.8,72.3,30.03,SE,141,0.0,1.0,89,0.00,,---,0.00,VWS V14.01,2013-04-19 03:11:00,
2013-04-18 23:16:00,75.7,72.2,30.03,SSW,193,0.0,1.0,89,0.00,,---,0.00,VWS V14.01,2013-04-19 03:16:00,
2013-04-18 23:21:00,75.7,72.2,30.03,SW,215,0.0,1.0,89,0.00,,---,0.00,VWS V14.01,2013-04-19 03:21:00,
2013-04-18 23:26:00,75.6,72.1,30.03,South,185,0.0,2.0,89,0.00,,---,0.00,VWS V14.01,2013-04-19 03:26:00,
2013-04-18 23:31:00,75.6,72.1,30.03,SSE,156,0.0,2.0,89,0.00,,---,0.00,VWS V14.01,2013-04-19 03:31:00,
2013-04-18 23:36:00,75.5,72.0,30.03,SE,136,0.0,0.0,89,0.00,,---,0.00,VWS V14.01,2013-04-19 03:36:00,
2013-04-18 23:41:00,75.4,71.9,30.04,SE,130,1.0,1.0,89,0.00,,---,0.00,VWS V14.01,2013-04-19 03:41:00,
2013-04-18 23:46:00,75.3,71.8,30.04,South,181,0.0,1.0,89,0.00,,---,0.00,VWS V14.01,2013-04-19 03:46:00,
2013-04-18 23:52:00,75.3,71.8,30.04,SW,219,0.0,3.0,89,0.00,,---,0.00,VWS V14.01,2013-04-19 03:52:00,
2013-04-18 23:57:00,75.3,71.8,30.04,SE,131,0.0,3.0,89,0.00,,---,0.00,VWS V14.01,2013-04-19 03:57:00,